sensor_id;sensor_type;location;lat;lon;timestamp;P1;durP1;ratioP1;P2;durP2;ratioP2
21780;SDS011;52576;53.614;9.894;2023-04-24T00:02:01;11.55;;;8.68;;
21780;SDS011;52576;53.614;9.894;2023-04-24T00:04:05;11.18;;;8.57;;
21780;SDS011;52576;53.614;9.894;2023-04-24T00:06:12;12.07;;;8.55;;
21780;SDS011;52576;53.614;9.894;2023-04-24T00:08:18;9.77;;;8.43;;
21780;SDS011;52576;53.614;9.894;2023-04-24T00:10:22;11.20;;;8.80;;
21780;SDS011;52576;53.614;9.894;2023-04-24T00:12:25;12.70;;;8.85;;
21780;SDS011;52576;53.614;9.894;2023-04-24T00:14:30;12.55;;;8.10;;
21780;SDS011;52576;53.614;9.894;2023-04-24T00:16:34;10.65;;;8.85;;
21780;SDS011;52576;53.614;9.894;2023-04-24T00:18:37;13.18;;;8.38;;
21780;SDS011;52576;53.614;9.894;2023-04-24T00:20:41;9.75;;;7.70;;
21780;SDS011;52576;53.614;9.894;2023-04-24T00:22:45;10.65;;;7.88;;
21780;SDS011;52576;53.614;9.894;2023-04-24T00:24:49;10.48;;;7.47;;
21780;SDS011;52576;53.614;9.894;2023-04-24T00:26:52;8.77;;;7.80;;
21780;SDS011;52576;53.614;9.894;2023-04-24T00:28:55;10.10;;;8.10;;
21780;SDS011;52576;53.614;9.894;2023-04-24T00:31:02;9.70;;;7.28;;
21780;SDS011;52576;53.614;9.894;2023-04-24T00:33:05;9.77;;;7.63;;
21780;SDS011;52576;53.614;9.894;2023-04-24T00:35:09;11.48;;;7.78;;
21780;SDS011;52576;53.614;9.894;2023-04-24T00:37:13;10.38;;;7.75;;
21780;SDS011;52576;53.614;9.894;2023-04-24T00:39:18;10.52;;;7.90;;
21780;SDS011;52576;53.614;9.894;2023-04-24T00:41:22;8.82;;;7.47;;
21780;SDS011;52576;53.614;9.894;2023-04-24T00:43:27;10.38;;;7.82;;
21780;SDS011;52576;53.614;9.894;2023-04-24T00:45:30;10.80;;;7.95;;
21780;SDS011;52576;53.614;9.894;2023-04-24T00:47:35;10.38;;;8.10;;
21780;SDS011;52576;53.614;9.894;2023-04-24T00:49:40;10.75;;;8.27;;
21780;SDS011;52576;53.614;9.894;2023-04-24T00:51:44;10.65;;;8.55;;
21780;SDS011;52576;53.614;9.894;2023-04-24T00:53:47;11.18;;;8.32;;
21780;SDS011;52576;53.614;9.894;2023-04-24T00:55:51;10.32;;;7.90;;
21780;SDS011;52576;53.614;9.894;2023-04-24T00:57:56;10.57;;;8.50;;
21780;SDS011;52576;53.614;9.894;2023-04-24T00:59:59;10.52;;;9.30;;
21780;SDS011;52576;53.614;9.894;2023-04-24T01:02:04;12.82;;;9.60;;
21780;SDS011;52576;53.614;9.894;2023-04-24T01:04:10;12.27;;;9.25;;
21780;SDS011;52576;53.614;9.894;2023-04-24T01:06:15;12.30;;;8.77;;
21780;SDS011;52576;53.614;9.894;2023-04-24T01:08:19;10.32;;;8.60;;
21780;SDS011;52576;53.614;9.894;2023-04-24T01:10:26;12.57;;;8.63;;
21780;SDS011;52576;53.614;9.894;2023-04-24T01:12:32;10.10;;;8.38;;
21780;SDS011;52576;53.614;9.894;2023-04-24T01:14:36;9.88;;;8.48;;
21780;SDS011;52576;53.614;9.894;2023-04-24T01:16:39;14.23;;;8.10;;
21780;SDS011;52576;53.614;9.894;2023-04-24T01:18:43;9.20;;;7.90;;
21780;SDS011;52576;53.614;9.894;2023-04-24T01:20:48;10.10;;;7.80;;
21780;SDS011;52576;53.614;9.894;2023-04-24T01:22:55;7.65;;;6.63;;
21780;SDS011;52576;53.614;9.894;2023-04-24T01:24:59;10.43;;;6.75;;
21780;SDS011;52576;53.614;9.894;2023-04-24T01:27:04;9.00;;;6.78;;
21780;SDS011;52576;53.614;9.894;2023-04-24T01:29:08;9.63;;;6.50;;
21780;SDS011;52576;53.614;9.894;2023-04-24T01:31:12;7.75;;;5.78;;
21780;SDS011;52576;53.614;9.894;2023-04-24T01:33:15;10.40;;;5.80;;
21780;SDS011;52576;53.614;9.894;2023-04-24T01:35:19;9.23;;;5.93;;
21780;SDS011;52576;53.614;9.894;2023-04-24T01:37:23;8.18;;;5.65;;
21780;SDS011;52576;53.614;9.894;2023-04-24T01:39:29;7.13;;;5.30;;
21780;SDS011;52576;53.614;9.894;2023-04-24T01:41:33;7.15;;;5.25;;
21780;SDS011;52576;53.614;9.894;2023-04-24T01:43:37;10.57;;;5.88;;
21780;SDS011;52576;53.614;9.894;2023-04-24T01:45:41;8.73;;;5.32;;
21780;SDS011;52576;53.614;9.894;2023-04-24T01:47:44;9.00;;;5.60;;
21780;SDS011;52576;53.614;9.894;2023-04-24T01:49:48;9.43;;;4.93;;
21780;SDS011;52576;53.614;9.894;2023-04-24T01:51:53;6.35;;;4.70;;
21780;SDS011;52576;53.614;9.894;2023-04-24T01:53:56;8.82;;;4.60;;
21780;SDS011;52576;53.614;9.894;2023-04-24T01:56:01;6.10;;;4.18;;
21780;SDS011;52576;53.614;9.894;2023-04-24T01:58:05;6.32;;;4.13;;
21780;SDS011;52576;53.614;9.894;2023-04-24T02:00:09;6.00;;;3.92;;
21780;SDS011;52576;53.614;9.894;2023-04-24T02:02:14;4.78;;;3.58;;
21780;SDS011;52576;53.614;9.894;2023-04-24T02:04:17;6.13;;;3.60;;
21780;SDS011;52576;53.614;9.894;2023-04-24T02:06:21;6.20;;;3.20;;
21780;SDS011;52576;53.614;9.894;2023-04-24T02:08:27;3.53;;;3.20;;
21780;SDS011;52576;53.614;9.894;2023-04-24T02:10:30;4.45;;;2.80;;
21780;SDS011;52576;53.614;9.894;2023-04-24T02:12:35;4.35;;;2.92;;
21780;SDS011;52576;53.614;9.894;2023-04-24T02:14:38;7.95;;;2.92;;
21780;SDS011;52576;53.614;9.894;2023-04-24T02:16:44;5.63;;;2.40;;
21780;SDS011;52576;53.614;9.894;2023-04-24T02:18:48;3.80;;;2.78;;
21780;SDS011;52576;53.614;9.894;2023-04-24T02:20:51;2.65;;;2.35;;
21780;SDS011;52576;53.614;9.894;2023-04-24T02:22:55;3.53;;;2.30;;
21780;SDS011;52576;53.614;9.894;2023-04-24T02:24:59;3.20;;;2.42;;
21780;SDS011;52576;53.614;9.894;2023-04-24T02:27:03;6.30;;;2.42;;
21780;SDS011;52576;53.614;9.894;2023-04-24T02:29:09;2.55;;;2.22;;
21780;SDS011;52576;53.614;9.894;2023-04-24T02:31:12;3.13;;;2.30;;
21780;SDS011;52576;53.614;9.894;2023-04-24T02:33:16;4.25;;;2.20;;
21780;SDS011;52576;53.614;9.894;2023-04-24T02:35:19;3.55;;;2.35;;
21780;SDS011;52576;53.614;9.894;2023-04-24T02:37:23;4.15;;;2.40;;
21780;SDS011;52576;53.614;9.894;2023-04-24T02:39:26;2.90;;;2.30;;
21780;SDS011;52576;53.614;9.894;2023-04-24T02:41:30;3.30;;;2.10;;
21780;SDS011;52576;53.614;9.894;2023-04-24T02:43:34;2.47;;;2.20;;
21780;SDS011;52576;53.614;9.894;2023-04-24T02:45:39;4.32;;;2.15;;
21780;SDS011;52576;53.614;9.894;2023-04-24T02:47:43;4.32;;;2.30;;
21780;SDS011;52576;53.614;9.894;2023-04-24T02:49:47;2.47;;;2.13;;
21780;SDS011;52576;53.614;9.894;2023-04-24T02:51:50;2.40;;;2.17;;
21780;SDS011;52576;53.614;9.894;2023-04-24T02:53:53;3.42;;;2.20;;
21780;SDS011;52576;53.614;9.894;2023-04-24T02:55:57;2.42;;;2.20;;
21780;SDS011;52576;53.614;9.894;2023-04-24T02:58:00;3.58;;;2.28;;
21780;SDS011;52576;53.614;9.894;2023-04-24T03:00:04;3.63;;;2.28;;
21780;SDS011;52576;53.614;9.894;2023-04-24T03:02:11;4.07;;;2.55;;
21780;SDS011;52576;53.614;9.894;2023-04-24T03:04:15;5.18;;;2.70;;
21780;SDS011;52576;53.614;9.894;2023-04-24T03:06:22;3.25;;;2.50;;
21780;SDS011;52576;53.614;9.894;2023-04-24T03:08:26;5.30;;;2.72;;
21780;SDS011;52576;53.614;9.894;2023-04-24T03:10:29;3.47;;;2.58;;
21780;SDS011;52576;53.614;9.894;2023-04-24T03:12:33;3.00;;;2.70;;
21780;SDS011;52576;53.614;9.894;2023-04-24T03:14:37;3.50;;;2.60;;
21780;SDS011;52576;53.614;9.894;2023-04-24T03:16:40;6.53;;;2.90;;
21780;SDS011;52576;53.614;9.894;2023-04-24T03:18:45;3.88;;;2.80;;
21780;SDS011;52576;53.614;9.894;2023-04-24T03:20:49;3.53;;;2.60;;
21780;SDS011;52576;53.614;9.894;2023-04-24T03:22:53;2.83;;;2.53;;
21780;SDS011;52576;53.614;9.894;2023-04-24T03:24:56;5.68;;;2.83;;
21780;SDS011;52576;53.614;9.894;2023-04-24T03:27:00;3.45;;;2.65;;
21780;SDS011;52576;53.614;9.894;2023-04-24T03:29:21;2.55;;;2.35;;
21780;SDS011;52576;53.614;9.894;2023-04-24T03:31:25;3.40;;;2.80;;
21780;SDS011;52576;53.614;9.894;2023-04-24T03:33:29;3.65;;;2.85;;
21780;SDS011;52576;53.614;9.894;2023-04-24T03:35:37;3.28;;;2.38;;
21780;SDS011;52576;53.614;9.894;2023-04-24T03:37:43;5.22;;;2.50;;
21780;SDS011;52576;53.614;9.894;2023-04-24T03:40:08;3.30;;;2.42;;
21780;SDS011;52576;53.614;9.894;2023-04-24T03:42:12;5.05;;;2.47;;
21780;SDS011;52576;53.614;9.894;2023-04-24T03:44:24;4.03;;;2.70;;
21780;SDS011;52576;53.614;9.894;2023-04-24T03:46:28;5.18;;;2.47;;
21780;SDS011;52576;53.614;9.894;2023-04-24T03:48:33;3.30;;;2.75;;
21780;SDS011;52576;53.614;9.894;2023-04-24T03:50:38;2.50;;;2.30;;
21780;SDS011;52576;53.614;9.894;2023-04-24T03:52:44;3.47;;;2.50;;
21780;SDS011;52576;53.614;9.894;2023-04-24T03:55:02;3.30;;;2.20;;
21780;SDS011;52576;53.614;9.894;2023-04-24T03:57:11;4.05;;;2.60;;
21780;SDS011;52576;53.614;9.894;2023-04-24T03:59:24;2.47;;;2.08;;
21780;SDS011;52576;53.614;9.894;2023-04-24T04:01:48;2.65;;;2.20;;
21780;SDS011;52576;53.614;9.894;2023-04-24T04:03:52;2.55;;;2.20;;
21780;SDS011;52576;53.614;9.894;2023-04-24T04:05:59;3.70;;;2.30;;
21780;SDS011;52576;53.614;9.894;2023-04-24T04:08:03;3.20;;;2.30;;
21780;SDS011;52576;53.614;9.894;2023-04-24T04:10:07;3.20;;;2.38;;
21780;SDS011;52576;53.614;9.894;2023-04-24T04:12:11;3.15;;;2.35;;
21780;SDS011;52576;53.614;9.894;2023-04-24T04:14:15;2.40;;;2.00;;
21780;SDS011;52576;53.614;9.894;2023-04-24T04:16:22;2.75;;;2.10;;
21780;SDS011;52576;53.614;9.894;2023-04-24T04:18:31;4.97;;;2.20;;
21780;SDS011;52576;53.614;9.894;2023-04-24T04:20:36;2.83;;;2.08;;
21780;SDS011;52576;53.614;9.894;2023-04-24T04:22:44;3.13;;;2.00;;
21780;SDS011;52576;53.614;9.894;2023-04-24T04:24:53;2.63;;;2.22;;
21780;SDS011;52576;53.614;9.894;2023-04-24T04:26:57;2.22;;;2.03;;
21780;SDS011;52576;53.614;9.894;2023-04-24T04:29:10;2.72;;;2.03;;
21780;SDS011;52576;53.614;9.894;2023-04-24T04:31:17;2.47;;;2.20;;
21780;SDS011;52576;53.614;9.894;2023-04-24T04:33:22;2.55;;;2.00;;
21780;SDS011;52576;53.614;9.894;2023-04-24T04:35:27;3.28;;;2.20;;
21780;SDS011;52576;53.614;9.894;2023-04-24T04:37:31;3.25;;;1.77;;
21780;SDS011;52576;53.614;9.894;2023-04-24T04:40:07;3.00;;;1.83;;
21780;SDS011;52576;53.614;9.894;2023-04-24T04:42:22;5.88;;;2.00;;
21780;SDS011;52576;53.614;9.894;2023-04-24T04:44:26;2.88;;;2.00;;
21780;SDS011;52576;53.614;9.894;2023-04-24T04:46:33;1.92;;;1.52;;
21780;SDS011;52576;53.614;9.894;2023-04-24T04:48:50;2.20;;;1.70;;
21780;SDS011;52576;53.614;9.894;2023-04-24T04:50:57;2.13;;;1.50;;
21780;SDS011;52576;53.614;9.894;2023-04-24T04:53:01;2.63;;;1.80;;
21780;SDS011;52576;53.614;9.894;2023-04-24T04:55:11;1.50;;;1.38;;
21780;SDS011;52576;53.614;9.894;2023-04-24T04:57:39;3.25;;;1.77;;
21780;SDS011;52576;53.614;9.894;2023-04-24T04:59:43;2.78;;;1.45;;
21780;SDS011;52576;53.614;9.894;2023-04-24T05:01:54;1.80;;;1.70;;
21780;SDS011;52576;53.614;9.894;2023-04-24T05:04:01;2.28;;;1.33;;
21780;SDS011;52576;53.614;9.894;2023-04-24T05:06:06;1.73;;;1.50;;
21780;SDS011;52576;53.614;9.894;2023-04-24T05:08:12;2.42;;;1.65;;
21780;SDS011;52576;53.614;9.894;2023-04-24T05:10:20;2.50;;;1.50;;
21780;SDS011;52576;53.614;9.894;2023-04-24T05:12:27;6.97;;;1.85;;
21780;SDS011;52576;53.614;9.894;2023-04-24T05:14:35;4.18;;;1.50;;
21780;SDS011;52576;53.614;9.894;2023-04-24T05:16:39;2.13;;;1.70;;
21780;SDS011;52576;53.614;9.894;2023-04-24T05:18:44;2.05;;;1.45;;
21780;SDS011;52576;53.614;9.894;2023-04-24T05:20:51;1.73;;;1.48;;
21780;SDS011;52576;53.614;9.894;2023-04-24T05:22:55;1.80;;;1.60;;
21780;SDS011;52576;53.614;9.894;2023-04-24T05:25:00;2.10;;;1.45;;
21780;SDS011;52576;53.614;9.894;2023-04-24T05:27:06;2.58;;;1.73;;
21780;SDS011;52576;53.614;9.894;2023-04-24T05:29:13;2.13;;;1.60;;
21780;SDS011;52576;53.614;9.894;2023-04-24T05:31:17;5.10;;;1.40;;
21780;SDS011;52576;53.614;9.894;2023-04-24T05:33:20;1.60;;;1.40;;
21780;SDS011;52576;53.614;9.894;2023-04-24T05:35:24;2.08;;;1.20;;
21780;SDS011;52576;53.614;9.894;2023-04-24T05:37:28;2.00;;;1.20;;
21780;SDS011;52576;53.614;9.894;2023-04-24T05:39:32;3.63;;;1.42;;
21780;SDS011;52576;53.614;9.894;2023-04-24T05:41:35;1.95;;;1.10;;
21780;SDS011;52576;53.614;9.894;2023-04-24T05:43:40;3.50;;;1.23;;
21780;SDS011;52576;53.614;9.894;2023-04-24T05:45:43;3.13;;;1.30;;
21780;SDS011;52576;53.614;9.894;2023-04-24T05:47:51;1.58;;;1.15;;
21780;SDS011;52576;53.614;9.894;2023-04-24T05:49:56;2.40;;;1.08;;
21780;SDS011;52576;53.614;9.894;2023-04-24T05:52:00;3.17;;;1.30;;
21780;SDS011;52576;53.614;9.894;2023-04-24T05:54:05;2.67;;;1.23;;
21780;SDS011;52576;53.614;9.894;2023-04-24T05:56:09;3.55;;;1.33;;
21780;SDS011;52576;53.614;9.894;2023-04-24T05:58:13;4.30;;;2.05;;
21780;SDS011;52576;53.614;9.894;2023-04-24T06:00:19;2.15;;;1.30;;
21780;SDS011;52576;53.614;9.894;2023-04-24T06:02:32;4.63;;;1.35;;
21780;SDS011;52576;53.614;9.894;2023-04-24T06:04:36;5.30;;;1.40;;
21780;SDS011;52576;53.614;9.894;2023-04-24T06:06:40;3.90;;;1.40;;
21780;SDS011;52576;53.614;9.894;2023-04-24T06:08:43;3.85;;;1.42;;
21780;SDS011;52576;53.614;9.894;2023-04-24T06:10:47;2.05;;;1.30;;
21780;SDS011;52576;53.614;9.894;2023-04-24T06:12:53;1.88;;;1.40;;
21780;SDS011;52576;53.614;9.894;2023-04-24T06:14:58;1.88;;;1.30;;
21780;SDS011;52576;53.614;9.894;2023-04-24T06:17:35;3.50;;;1.42;;
21780;SDS011;52576;53.614;9.894;2023-04-24T06:19:39;1.85;;;1.52;;
21780;SDS011;52576;53.614;9.894;2023-04-24T06:21:43;3.75;;;1.45;;
21780;SDS011;52576;53.614;9.894;2023-04-24T06:23:47;2.42;;;1.58;;
21780;SDS011;52576;53.614;9.894;2023-04-24T06:25:51;1.95;;;1.48;;
21780;SDS011;52576;53.614;9.894;2023-04-24T06:27:55;2.33;;;1.38;;
21780;SDS011;52576;53.614;9.894;2023-04-24T06:29:58;2.00;;;1.42;;
21780;SDS011;52576;53.614;9.894;2023-04-24T06:32:02;4.88;;;1.60;;
21780;SDS011;52576;53.614;9.894;2023-04-24T06:34:08;2.38;;;1.40;;
21780;SDS011;52576;53.614;9.894;2023-04-24T06:36:11;1.73;;;1.55;;
21780;SDS011;52576;53.614;9.894;2023-04-24T06:38:15;4.53;;;1.45;;
21780;SDS011;52576;53.614;9.894;2023-04-24T06:40:18;2.13;;;1.45;;
21780;SDS011;52576;53.614;9.894;2023-04-24T06:42:22;3.80;;;1.73;;
21780;SDS011;52576;53.614;9.894;2023-04-24T06:44:26;2.20;;;1.60;;
21780;SDS011;52576;53.614;9.894;2023-04-24T06:46:29;2.13;;;1.45;;
21780;SDS011;52576;53.614;9.894;2023-04-24T06:48:33;5.20;;;1.80;;
21780;SDS011;52576;53.614;9.894;2023-04-24T06:50:38;2.70;;;1.70;;
21780;SDS011;52576;53.614;9.894;2023-04-24T06:52:41;3.03;;;1.90;;
21780;SDS011;52576;53.614;9.894;2023-04-24T06:54:45;3.42;;;1.58;;
21780;SDS011;52576;53.614;9.894;2023-04-24T06:56:49;2.10;;;1.40;;
21780;SDS011;52576;53.614;9.894;2023-04-24T06:58:53;3.45;;;1.50;;
21780;SDS011;52576;53.614;9.894;2023-04-24T07:00:57;2.88;;;1.70;;
21780;SDS011;52576;53.614;9.894;2023-04-24T07:03:00;2.78;;;1.80;;
21780;SDS011;52576;53.614;9.894;2023-04-24T07:05:04;3.25;;;1.80;;
21780;SDS011;52576;53.614;9.894;2023-04-24T07:07:09;5.32;;;1.77;;
21780;SDS011;52576;53.614;9.894;2023-04-24T07:09:15;3.78;;;2.10;;
21780;SDS011;52576;53.614;9.894;2023-04-24T07:11:20;2.97;;;1.75;;
21780;SDS011;52576;53.614;9.894;2023-04-24T07:13:23;2.30;;;1.77;;
21780;SDS011;52576;53.614;9.894;2023-04-24T07:15:27;3.33;;;1.90;;
21780;SDS011;52576;53.614;9.894;2023-04-24T07:17:31;3.75;;;2.40;;
21780;SDS011;52576;53.614;9.894;2023-04-24T07:19:34;3.35;;;2.33;;
21780;SDS011;52576;53.614;9.894;2023-04-24T07:21:38;4.72;;;2.47;;
21780;SDS011;52576;53.614;9.894;2023-04-24T07:23:43;3.30;;;2.28;;
21780;SDS011;52576;53.614;9.894;2023-04-24T07:25:46;4.28;;;2.97;;
21780;SDS011;52576;53.614;9.894;2023-04-24T07:27:50;3.00;;;2.28;;
21780;SDS011;52576;53.614;9.894;2023-04-24T07:29:54;4.00;;;2.55;;
21780;SDS011;52576;53.614;9.894;2023-04-24T07:31:57;3.25;;;2.50;;
21780;SDS011;52576;53.614;9.894;2023-04-24T07:34:04;3.83;;;2.78;;
21780;SDS011;52576;53.614;9.894;2023-04-24T07:36:07;3.00;;;2.70;;
21780;SDS011;52576;53.614;9.894;2023-04-24T07:38:17;3.95;;;2.65;;
21780;SDS011;52576;53.614;9.894;2023-04-24T07:40:24;3.42;;;2.80;;
21780;SDS011;52576;53.614;9.894;2023-04-24T07:42:28;4.43;;;2.95;;
21780;SDS011;52576;53.614;9.894;2023-04-24T07:44:32;4.53;;;2.95;;
21780;SDS011;52576;53.614;9.894;2023-04-24T07:46:36;3.70;;;2.78;;
21780;SDS011;52576;53.614;9.894;2023-04-24T07:48:39;3.55;;;2.85;;
21780;SDS011;52576;53.614;9.894;2023-04-24T07:50:43;4.68;;;2.60;;
21780;SDS011;52576;53.614;9.894;2023-04-24T07:52:46;7.18;;;3.20;;
21780;SDS011;52576;53.614;9.894;2023-04-24T07:54:50;4.28;;;3.30;;
21780;SDS011;52576;53.614;9.894;2023-04-24T07:57:01;5.13;;;2.85;;
21780;SDS011;52576;53.614;9.894;2023-04-24T07:59:04;3.92;;;2.95;;
21780;SDS011;52576;53.614;9.894;2023-04-24T08:01:08;4.78;;;3.50;;
21780;SDS011;52576;53.614;9.894;2023-04-24T08:03:13;6.45;;;3.30;;
21780;SDS011;52576;53.614;9.894;2023-04-24T08:05:20;4.50;;;3.05;;
21780;SDS011;52576;53.614;9.894;2023-04-24T08:07:23;4.10;;;3.45;;
21780;SDS011;52576;53.614;9.894;2023-04-24T08:09:27;5.03;;;3.55;;
21780;SDS011;52576;53.614;9.894;2023-04-24T08:11:30;3.90;;;3.35;;
21780;SDS011;52576;53.614;9.894;2023-04-24T08:13:36;4.88;;;3.20;;
21780;SDS011;52576;53.614;9.894;2023-04-24T08:15:39;3.83;;;3.10;;
21780;SDS011;52576;53.614;9.894;2023-04-24T08:17:43;4.45;;;3.85;;
21780;SDS011;52576;53.614;9.894;2023-04-24T08:19:46;6.55;;;3.70;;
21780;SDS011;52576;53.614;9.894;2023-04-24T08:21:50;3.72;;;3.28;;
21780;SDS011;52576;53.614;9.894;2023-04-24T08:23:53;5.88;;;3.70;;
21780;SDS011;52576;53.614;9.894;2023-04-24T08:25:57;4.82;;;3.55;;
21780;SDS011;52576;53.614;9.894;2023-04-24T08:28:01;3.53;;;3.22;;
21780;SDS011;52576;53.614;9.894;2023-04-24T08:30:07;3.95;;;3.20;;
21780;SDS011;52576;53.614;9.894;2023-04-24T08:32:11;5.60;;;3.75;;
21780;SDS011;52576;53.614;9.894;2023-04-24T08:34:15;4.55;;;3.80;;
21780;SDS011;52576;53.614;9.894;2023-04-24T08:36:18;4.05;;;3.58;;
21780;SDS011;52576;53.614;9.894;2023-04-24T08:38:22;5.75;;;4.20;;
21780;SDS011;52576;53.614;9.894;2023-04-24T08:40:27;4.38;;;3.80;;
21780;SDS011;52576;53.614;9.894;2023-04-24T08:42:31;6.88;;;4.22;;
21780;SDS011;52576;53.614;9.894;2023-04-24T08:44:37;5.90;;;4.30;;
21780;SDS011;52576;53.614;9.894;2023-04-24T08:46:42;5.28;;;4.45;;
21780;SDS011;52576;53.614;9.894;2023-04-24T08:48:47;7.15;;;3.92;;
21780;SDS011;52576;53.614;9.894;2023-04-24T08:50:51;6.05;;;4.15;;
21780;SDS011;52576;53.614;9.894;2023-04-24T08:52:55;8.88;;;3.88;;
21780;SDS011;52576;53.614;9.894;2023-04-24T08:55:00;5.88;;;4.40;;
21780;SDS011;52576;53.614;9.894;2023-04-24T08:57:05;6.07;;;4.60;;
21780;SDS011;52576;53.614;9.894;2023-04-24T08:59:11;6.05;;;4.75;;
21780;SDS011;52576;53.614;9.894;2023-04-24T09:01:15;5.70;;;4.60;;
21780;SDS011;52576;53.614;9.894;2023-04-24T09:03:20;5.60;;;4.60;;
21780;SDS011;52576;53.614;9.894;2023-04-24T09:05:24;5.15;;;4.63;;
21780;SDS011;52576;53.614;9.894;2023-04-24T09:07:30;6.80;;;4.80;;
21780;SDS011;52576;53.614;9.894;2023-04-24T09:09:38;6.22;;;4.93;;
21780;SDS011;52576;53.614;9.894;2023-04-24T09:11:42;8.05;;;5.40;;
21780;SDS011;52576;53.614;9.894;2023-04-24T09:13:46;6.63;;;5.22;;
21780;SDS011;52576;53.614;9.894;2023-04-24T09:15:51;7.05;;;5.35;;
21780;SDS011;52576;53.614;9.894;2023-04-24T09:17:55;5.50;;;5.00;;
21780;SDS011;52576;53.614;9.894;2023-04-24T09:20:00;6.20;;;5.60;;
21780;SDS011;52576;53.614;9.894;2023-04-24T09:22:04;8.23;;;5.07;;
21780;SDS011;52576;53.614;9.894;2023-04-24T09:24:14;5.80;;;5.28;;
21780;SDS011;52576;53.614;9.894;2023-04-24T09:26:20;6.15;;;5.10;;
21780;SDS011;52576;53.614;9.894;2023-04-24T09:28:25;5.88;;;5.22;;
21780;SDS011;52576;53.614;9.894;2023-04-24T09:30:29;9.18;;;5.65;;
21780;SDS011;52576;53.614;9.894;2023-04-24T09:32:33;6.07;;;5.47;;
21780;SDS011;52576;53.614;9.894;2023-04-24T09:34:37;10.30;;;6.20;;
21780;SDS011;52576;53.614;9.894;2023-04-24T09:36:42;6.80;;;4.90;;
21780;SDS011;52576;53.614;9.894;2023-04-24T09:38:46;7.43;;;5.18;;
21780;SDS011;52576;53.614;9.894;2023-04-24T09:40:49;5.47;;;4.80;;
21780;SDS011;52576;53.614;9.894;2023-04-24T09:42:53;8.93;;;5.55;;
21780;SDS011;52576;53.614;9.894;2023-04-24T09:44:58;6.07;;;5.00;;
21780;SDS011;52576;53.614;9.894;2023-04-24T09:47:15;6.18;;;4.68;;
21780;SDS011;52576;53.614;9.894;2023-04-24T09:49:22;6.00;;;4.70;;
21780;SDS011;52576;53.614;9.894;2023-04-24T09:51:33;6.30;;;5.05;;
21780;SDS011;52576;53.614;9.894;2023-04-24T09:53:44;5.75;;;4.88;;
21780;SDS011;52576;53.614;9.894;2023-04-24T09:55:56;6.28;;;5.35;;
21780;SDS011;52576;53.614;9.894;2023-04-24T09:58:04;5.50;;;4.97;;
21780;SDS011;52576;53.614;9.894;2023-04-24T10:00:08;8.10;;;6.47;;
21780;SDS011;52576;53.614;9.894;2023-04-24T10:02:16;7.45;;;6.28;;
21780;SDS011;52576;53.614;9.894;2023-04-24T10:04:21;9.77;;;6.63;;
21780;SDS011;52576;53.614;9.894;2023-04-24T10:06:29;8.43;;;5.50;;
21780;SDS011;52576;53.614;9.894;2023-04-24T10:08:34;9.60;;;5.80;;
21780;SDS011;52576;53.614;9.894;2023-04-24T10:10:41;8.23;;;6.40;;
21780;SDS011;52576;53.614;9.894;2023-04-24T10:12:45;10.25;;;7.78;;
21780;SDS011;52576;53.614;9.894;2023-04-24T10:14:49;9.68;;;7.25;;
21780;SDS011;52576;53.614;9.894;2023-04-24T10:16:54;10.50;;;8.20;;
21780;SDS011;52576;53.614;9.894;2023-04-24T10:18:58;8.20;;;6.90;;
21780;SDS011;52576;53.614;9.894;2023-04-24T10:21:04;11.65;;;7.03;;
21780;SDS011;52576;53.614;9.894;2023-04-24T10:23:09;11.52;;;7.57;;
21780;SDS011;52576;53.614;9.894;2023-04-24T10:25:13;10.00;;;6.93;;
21780;SDS011;52576;53.614;9.894;2023-04-24T10:27:19;10.73;;;7.15;;
21780;SDS011;52576;53.614;9.894;2023-04-24T10:29:24;8.98;;;7.18;;
21780;SDS011;52576;53.614;9.894;2023-04-24T10:31:31;13.10;;;8.05;;
21780;SDS011;52576;53.614;9.894;2023-04-24T10:33:35;10.13;;;7.50;;
21780;SDS011;52576;53.614;9.894;2023-04-24T10:35:39;14.02;;;8.65;;
21780;SDS011;52576;53.614;9.894;2023-04-24T10:37:45;11.30;;;8.02;;
21780;SDS011;52576;53.614;9.894;2023-04-24T10:39:51;11.70;;;8.50;;
21780;SDS011;52576;53.614;9.894;2023-04-24T10:41:56;11.85;;;8.55;;
21780;SDS011;52576;53.614;9.894;2023-04-24T10:44:07;11.10;;;8.40;;
21780;SDS011;52576;53.614;9.894;2023-04-24T10:46:17;11.40;;;8.30;;
21780;SDS011;52576;53.614;9.894;2023-04-24T10:48:26;12.00;;;8.07;;
21780;SDS011;52576;53.614;9.894;2023-04-24T10:50:34;11.18;;;8.05;;
21780;SDS011;52576;53.614;9.894;2023-04-24T10:52:47;13.10;;;7.15;;
21780;SDS011;52576;53.614;9.894;2023-04-24T10:54:52;12.10;;;8.20;;
21780;SDS011;52576;53.614;9.894;2023-04-24T10:59:35;13.35;;;9.05;;
21780;SDS011;52576;53.614;9.894;2023-04-24T11:01:39;12.82;;;8.50;;
21780;SDS011;52576;53.614;9.894;2023-04-24T11:03:44;11.30;;;8.85;;
21780;SDS011;52576;53.614;9.894;2023-04-24T11:05:58;13.18;;;8.95;;
21780;SDS011;52576;53.614;9.894;2023-04-24T11:08:12;13.02;;;8.98;;
21780;SDS011;52576;53.614;9.894;2023-04-24T11:10:24;12.23;;;8.73;;
21780;SDS011;52576;53.614;9.894;2023-04-24T11:12:28;11.57;;;8.75;;
21780;SDS011;52576;53.614;9.894;2023-04-24T11:17:26;12.15;;;8.95;;
21780;SDS011;52576;53.614;9.894;2023-04-24T11:19:31;11.90;;;9.02;;
21780;SDS011;52576;53.614;9.894;2023-04-24T11:21:39;13.00;;;9.70;;
21780;SDS011;52576;53.614;9.894;2023-04-24T11:23:44;11.73;;;8.80;;
21780;SDS011;52576;53.614;9.894;2023-04-24T11:25:52;10.85;;;8.82;;
21780;SDS011;52576;53.614;9.894;2023-04-24T11:28:14;10.85;;;8.20;;
21780;SDS011;52576;53.614;9.894;2023-04-24T11:30:20;11.68;;;8.43;;
21780;SDS011;52576;53.614;9.894;2023-04-24T11:32:24;13.32;;;8.68;;
21780;SDS011;52576;53.614;9.894;2023-04-24T11:34:29;10.48;;;8.18;;
21780;SDS011;52576;53.614;9.894;2023-04-24T11:36:34;10.48;;;8.40;;
21780;SDS011;52576;53.614;9.894;2023-04-24T11:38:38;12.57;;;8.63;;
21780;SDS011;52576;53.614;9.894;2023-04-24T11:40:42;11.82;;;8.60;;
21780;SDS011;52576;53.614;9.894;2023-04-24T11:42:47;10.50;;;8.32;;
21780;SDS011;52576;53.614;9.894;2023-04-24T11:44:52;11.98;;;7.85;;
21780;SDS011;52576;53.614;9.894;2023-04-24T11:46:58;12.98;;;8.70;;
21780;SDS011;52576;53.614;9.894;2023-04-24T11:49:02;10.77;;;8.63;;
21780;SDS011;52576;53.614;9.894;2023-04-24T11:51:05;11.73;;;8.48;;
21780;SDS011;52576;53.614;9.894;2023-04-24T11:53:08;12.75;;;7.97;;
21780;SDS011;52576;53.614;9.894;2023-04-24T11:55:22;10.77;;;8.07;;
21780;SDS011;52576;53.614;9.894;2023-04-24T11:57:28;11.05;;;8.38;;
21780;SDS011;52576;53.614;9.894;2023-04-24T11:59:35;9.05;;;7.85;;
21780;SDS011;52576;53.614;9.894;2023-04-24T12:01:42;9.75;;;7.60;;
21780;SDS011;52576;53.614;9.894;2023-04-24T12:03:49;11.40;;;7.40;;
21780;SDS011;52576;53.614;9.894;2023-04-24T12:06:04;8.18;;;6.70;;
21780;SDS011;52576;53.614;9.894;2023-04-24T12:08:09;8.80;;;6.45;;
21780;SDS011;52576;53.614;9.894;2023-04-24T12:10:13;9.73;;;6.40;;
21780;SDS011;52576;53.614;9.894;2023-04-24T12:12:16;8.27;;;5.85;;
21780;SDS011;52576;53.614;9.894;2023-04-24T12:14:20;7.38;;;5.90;;
21780;SDS011;52576;53.614;9.894;2023-04-24T12:16:25;8.15;;;5.93;;
21780;SDS011;52576;53.614;9.894;2023-04-24T12:18:29;8.77;;;6.30;;
21780;SDS011;52576;53.614;9.894;2023-04-24T12:20:35;7.00;;;6.03;;
21780;SDS011;52576;53.614;9.894;2023-04-24T12:22:44;7.35;;;6.20;;
21780;SDS011;52576;53.614;9.894;2023-04-24T12:24:58;7.50;;;6.53;;
21780;SDS011;52576;53.614;9.894;2023-04-24T12:27:04;9.32;;;5.90;;
21780;SDS011;52576;53.614;9.894;2023-04-24T12:29:07;9.18;;;6.07;;
21780;SDS011;52576;53.614;9.894;2023-04-24T12:31:11;7.55;;;6.05;;
21780;SDS011;52576;53.614;9.894;2023-04-24T12:33:17;8.63;;;6.70;;
21780;SDS011;52576;53.614;9.894;2023-04-24T12:35:20;7.60;;;6.55;;
21780;SDS011;52576;53.614;9.894;2023-04-24T12:37:26;10.68;;;6.97;;
21780;SDS011;52576;53.614;9.894;2023-04-24T12:41:48;10.95;;;6.38;;
21780;SDS011;52576;53.614;9.894;2023-04-24T12:44:03;7.78;;;6.57;;